createdAt,value
2019-03-12T00:00:34.376Z,947.06
2019-03-12T00:03:00.684Z,947.19
2019-03-12T00:05:26.990Z,947.25
2019-03-12T00:07:53.293Z,947.22
2019-03-12T00:10:19.608Z,947.34
2019-03-12T00:12:45.913Z,947.36
2019-03-12T00:15:12.223Z,947.46
2019-03-12T00:17:38.534Z,947.45
2019-03-12T00:20:04.846Z,947.40
2019-03-12T00:22:31.158Z,947.49
2019-03-12T00:24:57.474Z,947.45
2019-03-12T00:27:23.791Z,947.41
2019-03-12T00:29:50.099Z,947.46
2019-03-12T00:32:16.441Z,947.41
2019-03-12T00:34:42.787Z,947.47
2019-03-12T00:37:09.061Z,947.37
2019-03-12T00:39:35.384Z,947.45
2019-03-12T00:42:01.692Z,947.36
2019-03-12T00:44:28.014Z,947.41
2019-03-12T00:46:54.322Z,947.34
2019-03-12T00:49:20.699Z,947.34
2019-03-12T00:51:47.009Z,947.35
2019-03-12T00:54:13.325Z,947.37
2019-03-12T00:56:39.636Z,947.38
2019-03-12T00:59:05.942Z,947.39
2019-03-12T01:01:32.252Z,947.42
2019-03-12T01:03:58.583Z,947.40
2019-03-12T01:06:24.900Z,947.31
2019-03-12T01:08:51.206Z,947.47
2019-03-12T01:11:17.556Z,947.40
2019-03-12T01:13:44.005Z,947.47
2019-03-12T01:16:10.231Z,947.46
2019-03-12T01:18:36.531Z,947.39
2019-03-12T01:21:02.844Z,947.40
2019-03-12T01:23:29.155Z,947.37
2019-03-12T01:25:55.471Z,947.41
2019-03-12T01:28:21.790Z,947.41
2019-03-12T01:30:48.098Z,947.44
2019-03-12T01:33:14.409Z,947.45
2019-03-12T01:35:40.783Z,947.45
2019-03-12T01:38:07.049Z,947.48
2019-03-12T01:40:33.361Z,947.55
2019-03-12T01:42:59.677Z,947.59
2019-03-12T01:45:25.991Z,947.69
2019-03-12T01:47:52.305Z,947.66
2019-03-12T01:50:18.608Z,947.64
2019-03-12T01:52:44.926Z,947.74
2019-03-12T01:55:11.233Z,947.77
2019-03-12T01:57:37.547Z,947.79
2019-03-12T02:00:03.865Z,947.82
2019-03-12T02:02:30.181Z,947.84
2019-03-12T02:04:56.485Z,947.88
2019-03-12T02:07:22.799Z,947.90
2019-03-12T02:09:49.112Z,947.87
2019-03-12T02:12:15.434Z,947.87
2019-03-12T02:14:41.746Z,948.15
2019-03-12T02:17:08.061Z,948.27
2019-03-12T02:19:34.369Z,948.24
2019-03-12T02:22:00.704Z,948.19
2019-03-12T02:24:27.007Z,948.08
2019-03-12T02:26:53.324Z,947.98
2019-03-12T02:29:19.640Z,947.99
2019-03-12T02:31:45.951Z,948.04
2019-03-12T02:34:12.266Z,948.00
2019-03-12T02:36:38.575Z,948.01
2019-03-12T02:39:04.897Z,948.01
2019-03-12T02:41:31.189Z,947.94
2019-03-12T02:43:57.548Z,947.96
2019-03-12T02:46:23.854Z,948.00
2019-03-12T02:48:50.159Z,947.92
2019-03-12T02:51:16.465Z,947.91
2019-03-12T02:53:42.771Z,947.79
2019-03-12T02:56:09.105Z,947.86
2019-03-12T02:58:35.412Z,947.88
2019-03-12T03:01:01.747Z,947.90
2019-03-12T03:03:28.058Z,947.84
2019-03-12T03:05:54.433Z,947.85
2019-03-12T03:08:20.673Z,947.96
2019-03-12T03:10:46.992Z,948.00
2019-03-12T03:13:13.311Z,948.06
2019-03-12T03:15:39.620Z,948.07
2019-03-12T03:18:05.944Z,948.08
2019-03-12T03:20:32.249Z,948.08
2019-03-12T03:22:58.552Z,948.05
2019-03-12T03:25:24.867Z,947.95
2019-03-12T03:27:51.184Z,947.97
2019-03-12T03:30:17.491Z,947.93
2019-03-12T03:32:43.802Z,947.89
2019-03-12T03:35:10.153Z,947.95
2019-03-12T03:37:36.455Z,948.02
2019-03-12T03:40:02.759Z,948.02
2019-03-12T03:42:29.073Z,948.09
2019-03-12T03:44:55.383Z,948.09
2019-03-12T03:47:21.703Z,948.02
2019-03-12T03:49:48.010Z,948.03
2019-03-12T03:52:14.322Z,948.11
2019-03-12T03:54:40.631Z,948.17
2019-03-12T03:57:06.949Z,948.15
2019-03-12T03:59:33.259Z,948.14
2019-03-12T04:01:59.574Z,948.26
2019-03-12T04:04:25.893Z,948.15
2019-03-12T04:06:52.197Z,948.14
2019-03-12T04:09:18.508Z,948.32
2019-03-12T04:11:44.826Z,948.35
2019-03-12T04:14:11.131Z,948.34
2019-03-12T04:16:37.463Z,948.45
2019-03-12T04:19:03.823Z,948.41
2019-03-12T04:21:30.083Z,948.61
2019-03-12T04:23:56.400Z,948.64
2019-03-12T04:26:22.709Z,948.71
2019-03-12T04:28:49.028Z,948.73
2019-03-12T04:31:15.336Z,948.68
2019-03-12T04:33:41.680Z,948.72
2019-03-12T04:36:07.967Z,948.59
2019-03-12T04:38:34.277Z,948.70
2019-03-12T04:41:00.617Z,948.79
2019-03-12T04:43:26.926Z,948.69
2019-03-12T04:45:53.237Z,948.77
2019-03-12T04:48:19.559Z,948.90
2019-03-12T04:50:45.865Z,948.97
2019-03-12T04:53:12.216Z,948.95
2019-03-12T04:55:38.539Z,948.98
2019-03-12T04:58:04.850Z,949.02
2019-03-12T05:00:31.159Z,949.29
2019-03-12T05:02:57.466Z,949.38
2019-03-12T05:05:23.794Z,949.42
2019-03-12T05:07:50.084Z,949.47
2019-03-12T05:10:16.396Z,949.38
2019-03-12T05:12:42.724Z,949.42
2019-03-12T05:15:09.030Z,949.53
2019-03-12T05:17:35.346Z,949.53
2019-03-12T05:20:01.665Z,949.50
2019-03-12T05:22:27.970Z,949.60
2019-03-12T05:24:54.279Z,949.68
2019-03-12T05:27:20.618Z,949.79
2019-03-12T05:29:46.929Z,949.66
2019-03-12T05:32:13.237Z,949.60
2019-03-12T05:34:39.552Z,949.62
2019-03-12T05:37:05.872Z,949.63
2019-03-12T05:39:32.181Z,949.70
2019-03-12T05:41:58.520Z,949.77
2019-03-12T05:44:24.872Z,949.78
2019-03-12T05:46:51.154Z,949.79
2019-03-12T05:49:17.464Z,949.85
2019-03-12T05:51:43.774Z,949.87
2019-03-12T05:54:10.094Z,949.87
2019-03-12T05:56:36.404Z,949.83
2019-03-12T05:59:02.712Z,949.91
2019-03-12T06:01:29.017Z,949.87
2019-03-12T06:03:55.352Z,949.99
2019-03-12T06:06:21.669Z,949.94
2019-03-12T06:08:47.966Z,950.00
2019-03-12T06:11:14.477Z,950.13
2019-03-12T06:13:40.789Z,950.22
2019-03-12T06:16:09.387Z,950.27
2019-03-12T06:18:33.436Z,950.20
2019-03-12T06:20:59.755Z,950.23
2019-03-12T06:23:26.062Z,950.26
2019-03-12T06:25:52.374Z,950.40
2019-03-12T06:28:18.686Z,950.30
2019-03-12T06:30:45.017Z,950.43
2019-03-12T06:33:11.328Z,950.40
2019-03-12T06:35:37.641Z,950.40
2019-03-12T06:38:03.953Z,950.39
2019-03-12T06:40:30.262Z,950.39
2019-03-12T06:42:56.569Z,950.38
2019-03-12T06:45:22.877Z,950.40
2019-03-12T06:47:49.206Z,950.38
2019-03-12T06:50:15.506Z,950.42
2019-03-12T06:52:41.813Z,950.52
2019-03-12T06:55:08.122Z,950.49
2019-03-12T06:57:34.439Z,950.43
2019-03-12T07:00:00.806Z,950.37
2019-03-12T07:02:27.112Z,950.37
2019-03-12T07:04:53.430Z,950.39
2019-03-12T07:07:19.747Z,950.40
2019-03-12T07:09:46.108Z,950.34
2019-03-12T07:12:12.466Z,950.34
2019-03-12T07:14:41.214Z,950.32
2019-03-12T07:17:05.204Z,950.25
2019-03-12T07:19:31.540Z,950.26
2019-03-12T07:21:57.850Z,950.30
2019-03-12T07:24:24.167Z,950.22
2019-03-12T07:26:50.474Z,950.20
2019-03-12T07:29:16.899Z,950.13
2019-03-12T07:31:43.239Z,950.12
2019-03-12T07:34:09.561Z,950.17
2019-03-12T07:36:36.202Z,950.15
2019-03-12T07:39:02.574Z,950.13
2019-03-12T07:41:32.284Z,950.24
2019-03-12T07:43:55.207Z,950.27
2019-03-12T07:46:21.515Z,950.17
2019-03-12T07:48:47.887Z,950.19
2019-03-12T07:51:14.244Z,950.16
2019-03-12T07:53:40.554Z,950.30
2019-03-12T07:56:07.009Z,950.33
2019-03-12T07:58:35.924Z,950.35
2019-03-12T08:00:59.638Z,950.28
2019-03-12T08:03:25.946Z,950.24
2019-03-12T08:05:52.378Z,950.29
2019-03-12T08:08:18.693Z,950.43
2019-03-12T08:10:45.073Z,950.45
2019-03-12T08:13:11.387Z,950.52
2019-03-12T08:15:37.692Z,950.60
2019-03-12T08:18:04.122Z,950.69
2019-03-12T08:20:30.425Z,950.61
2019-03-12T08:22:56.746Z,950.58
2019-03-12T08:25:23.049Z,950.48
2019-03-12T08:27:49.391Z,950.41
2019-03-12T08:30:15.696Z,950.31
2019-03-12T08:32:42.000Z,950.35
2019-03-12T08:35:08.329Z,950.35
2019-03-12T08:37:34.656Z,950.41
2019-03-12T08:40:00.968Z,950.43
2019-03-12T08:42:27.280Z,950.46
2019-03-12T08:44:53.593Z,950.43
2019-03-12T08:47:19.912Z,950.44
2019-03-12T08:49:46.232Z,950.36
2019-03-12T08:52:12.591Z,950.40
2019-03-12T08:54:38.914Z,950.33
2019-03-12T08:57:05.238Z,950.39
2019-03-12T08:59:31.538Z,950.34
2019-03-12T09:01:57.851Z,950.38
2019-03-12T09:04:24.160Z,950.43
2019-03-12T09:06:50.497Z,950.40
2019-03-12T09:09:16.886Z,950.38
2019-03-12T09:11:43.210Z,950.49
2019-03-12T09:14:09.573Z,950.46
2019-03-12T09:16:35.840Z,950.50
2019-03-12T09:19:02.162Z,950.55
2019-03-12T09:21:28.466Z,950.51
2019-03-12T09:23:54.804Z,950.43
2019-03-12T09:26:21.204Z,950.42
2019-03-12T09:28:47.538Z,950.41
2019-03-12T09:31:13.846Z,950.45
2019-03-12T09:33:40.148Z,950.57
2019-03-12T09:36:06.487Z,950.66
2019-03-12T09:38:32.792Z,950.67
2019-03-12T09:40:59.120Z,950.63
2019-03-12T09:43:25.430Z,950.59
2019-03-12T09:45:51.732Z,950.65
2019-03-12T09:48:18.047Z,950.71
2019-03-12T09:50:44.360Z,950.68
2019-03-12T09:53:10.669Z,950.69
2019-03-12T09:55:36.984Z,950.63
2019-03-12T09:58:03.330Z,950.60
2019-03-12T10:00:29.662Z,950.62
2019-03-12T10:02:56.163Z,950.69
2019-03-12T10:05:22.462Z,950.73
2019-03-12T10:07:48.783Z,950.77
2019-03-12T10:10:15.113Z,950.77
2019-03-12T10:12:41.432Z,950.78
2019-03-12T10:15:07.763Z,950.73
2019-03-12T10:17:34.094Z,950.80
2019-03-12T10:20:00.431Z,950.85
2019-03-12T10:22:26.715Z,950.94
2019-03-12T10:24:53.028Z,950.89
2019-03-12T10:27:19.344Z,950.83
2019-03-12T10:29:45.675Z,950.83
2019-03-12T10:32:11.986Z,950.80
2019-03-12T10:34:38.306Z,950.87
2019-03-12T10:37:11.784Z,950.93
2019-03-12T10:39:30.934Z,950.90
2019-03-12T10:41:57.254Z,950.85
2019-03-12T10:44:24.773Z,950.85
2019-03-12T10:46:49.915Z,950.88
2019-03-12T10:49:16.228Z,950.89
2019-03-12T10:51:42.547Z,950.93
2019-03-12T10:54:08.875Z,950.90
2019-03-12T10:56:35.202Z,950.94
2019-03-12T10:59:01.521Z,950.94
2019-03-12T11:01:27.832Z,950.92
2019-03-12T11:03:54.169Z,950.98
2019-03-12T11:06:20.483Z,950.90
2019-03-12T11:08:46.904Z,950.87
2019-03-12T11:11:15.113Z,950.81
2019-03-12T11:13:39.568Z,950.78
2019-03-12T11:16:05.844Z,950.89
2019-03-12T11:18:32.153Z,950.94
2019-03-12T11:20:58.900Z,950.90
2019-03-12T11:23:24.783Z,950.91
2019-03-12T11:25:51.205Z,950.87
2019-03-12T11:28:17.520Z,950.82
2019-03-12T11:30:43.924Z,950.86
2019-03-12T11:33:10.151Z,950.82
2019-03-12T11:35:39.156Z,950.82
2019-03-12T11:38:02.794Z,950.83
2019-03-12T11:40:32.343Z,950.76
2019-03-12T11:42:55.430Z,950.64
2019-03-12T11:45:34.785Z,950.62
2019-03-12T11:47:48.321Z,950.60
2019-03-12T11:50:14.353Z,950.52
2019-03-12T11:52:40.674Z,950.46
2019-03-12T11:55:06.979Z,950.44
2019-03-12T11:57:33.344Z,950.40
2019-03-12T11:59:59.628Z,950.50
2019-03-12T12:02:25.934Z,950.57
2019-03-12T12:04:52.280Z,950.64
2019-03-12T12:07:18.622Z,950.64
2019-03-12T12:09:44.954Z,950.68
2019-03-12T12:12:11.234Z,950.77
2019-03-12T12:14:37.557Z,950.83
2019-03-12T12:17:03.869Z,950.90
2019-03-12T12:19:30.197Z,950.99
2019-03-12T12:21:56.521Z,950.99
2019-03-12T12:24:22.845Z,951.00
2019-03-12T12:26:49.166Z,951.07
2019-03-12T12:29:15.471Z,951.07
2019-03-12T12:31:41.781Z,951.09
2019-03-12T12:34:08.097Z,951.02
2019-03-12T12:36:34.411Z,950.97
2019-03-12T12:39:00.720Z,950.95
2019-03-12T12:41:27.036Z,950.97
2019-03-12T12:43:53.343Z,951.04
2019-03-12T12:46:19.659Z,950.99
2019-03-12T12:48:45.971Z,951.11
2019-03-12T12:51:12.282Z,951.10
2019-03-12T12:53:38.603Z,951.10
2019-03-12T12:56:04.910Z,951.10
2019-03-12T12:58:31.245Z,951.02
2019-03-12T13:00:57.560Z,951.07
2019-03-12T13:03:23.862Z,951.13
2019-03-12T13:05:50.202Z,951.02
2019-03-12T13:08:16.509Z,951.08
2019-03-12T13:10:42.819Z,951.15
2019-03-12T13:13:09.120Z,951.19
2019-03-12T13:15:35.874Z,951.18
2019-03-12T13:18:02.212Z,951.12
2019-03-12T13:20:28.524Z,951.17
2019-03-12T13:22:54.855Z,951.15
2019-03-12T13:25:21.163Z,951.09
2019-03-12T13:27:47.470Z,951.05
2019-03-12T13:30:13.781Z,951.10
2019-03-12T13:32:40.093Z,951.01
2019-03-12T13:35:06.403Z,951.12
2019-03-12T13:37:32.738Z,951.05
2019-03-12T13:39:59.071Z,951.00
2019-03-12T13:42:25.347Z,951.03
2019-03-12T13:44:51.660Z,951.08
2019-03-12T13:47:17.982Z,951.07
2019-03-12T13:49:44.322Z,951.10
2019-03-12T13:52:10.599Z,951.11
2019-03-12T13:54:36.909Z,951.03
2019-03-12T13:57:03.215Z,951.07
2019-03-12T13:59:29.544Z,951.08
2019-03-12T14:01:55.855Z,951.03
2019-03-12T14:04:22.165Z,951.06
2019-03-12T14:06:48.478Z,951.06
2019-03-12T14:09:14.789Z,951.12
2019-03-12T14:11:41.112Z,950.91
2019-03-12T14:14:07.419Z,951.09
2019-03-12T14:16:33.729Z,951.05
2019-03-12T14:19:00.037Z,951.06
2019-03-12T14:21:26.348Z,951.08
2019-03-12T14:23:52.657Z,951.02
2019-03-12T14:26:18.997Z,950.97
2019-03-12T14:28:45.312Z,950.98
2019-03-12T14:31:11.621Z,950.94
2019-03-12T14:33:37.935Z,950.98
2019-03-12T14:36:04.245Z,951.03
2019-03-12T14:38:30.557Z,951.06
2019-03-12T14:40:56.865Z,951.19
2019-03-12T14:43:23.169Z,951.19
2019-03-12T14:45:49.494Z,951.21
2019-03-12T14:48:15.842Z,951.22
2019-03-12T14:50:42.133Z,951.17
2019-03-12T14:53:21.034Z,951.24
2019-03-12T14:55:34.771Z,951.28
2019-03-12T14:58:01.076Z,951.27
2019-03-12T15:00:27.413Z,951.34
2019-03-12T15:02:53.718Z,951.32
2019-03-12T15:05:20.052Z,951.38
2019-03-12T15:07:46.437Z,951.41
2019-03-12T15:10:12.771Z,951.47
2019-03-12T15:12:39.082Z,951.47
2019-03-12T15:15:05.385Z,951.38
2019-03-12T15:17:31.698Z,951.33
2019-03-12T15:19:58.007Z,951.28
2019-03-12T15:22:24.385Z,951.36
2019-03-12T15:24:50.676Z,951.39
2019-03-12T15:27:16.990Z,951.39
2019-03-12T15:29:43.296Z,951.39
2019-03-12T15:32:09.819Z,951.44
2019-03-12T15:34:36.069Z,951.38
2019-03-12T15:37:02.376Z,951.33
2019-03-12T15:39:28.793Z,951.35
2019-03-12T15:41:55.065Z,951.36
2019-03-12T15:44:21.377Z,951.35
2019-03-12T15:46:47.686Z,951.32
2019-03-12T15:49:13.995Z,951.32
2019-03-12T15:51:40.310Z,951.33
2019-03-12T15:54:06.616Z,951.32
2019-03-12T15:56:32.931Z,951.42
2019-03-12T15:58:59.241Z,951.37
2019-03-12T16:01:25.575Z,951.38
2019-03-12T16:03:51.909Z,951.41
2019-03-12T16:06:18.263Z,951.39
2019-03-12T16:08:44.567Z,951.52
2019-03-12T16:11:10.893Z,951.65
2019-03-12T16:13:37.209Z,951.68
2019-03-12T16:16:03.517Z,951.76
2019-03-12T16:18:29.830Z,951.81
2019-03-12T16:20:56.141Z,951.82
2019-03-12T16:23:23.907Z,951.83
2019-03-12T16:25:50.213Z,951.86
2019-03-12T16:28:16.521Z,951.87
2019-03-12T16:30:42.829Z,951.95
2019-03-12T16:33:09.181Z,951.93
2019-03-12T16:35:35.488Z,951.98
2019-03-12T16:38:01.920Z,951.99
2019-03-12T16:40:28.235Z,952.06
2019-03-12T16:42:54.689Z,952.15
2019-03-12T16:45:21.007Z,952.22
2019-03-12T16:47:47.377Z,952.19
2019-03-12T16:50:13.662Z,952.23
2019-03-12T16:52:39.928Z,952.37
2019-03-12T16:55:06.245Z,952.52
2019-03-12T16:57:32.551Z,952.48
2019-03-12T16:59:58.864Z,952.44
2019-03-12T17:02:25.169Z,952.51
2019-03-12T17:04:51.503Z,952.53
2019-03-12T17:07:17.807Z,952.56
2019-03-12T17:09:44.159Z,952.61
2019-03-12T17:12:10.427Z,952.62
2019-03-12T17:14:39.036Z,952.70
2019-03-12T17:17:03.045Z,952.72
2019-03-12T17:19:29.361Z,952.77
2019-03-12T17:21:56.341Z,952.76
2019-03-12T17:24:22.655Z,952.83
2019-03-12T17:26:48.964Z,952.83
2019-03-12T17:29:15.405Z,952.91
2019-03-12T17:31:41.717Z,952.90
2019-03-12T17:34:08.043Z,952.95
2019-03-12T17:36:34.362Z,952.96
2019-03-12T17:39:00.694Z,952.99
2019-03-12T17:41:27.142Z,953.00
2019-03-12T17:43:53.431Z,953.05
2019-03-12T17:46:19.740Z,953.04
2019-03-12T17:48:46.057Z,953.08
2019-03-12T17:51:12.369Z,953.03
2019-03-12T17:53:38.725Z,953.06
2019-03-12T17:56:05.034Z,953.11
2019-03-12T17:58:31.351Z,953.18
2019-03-12T18:00:57.686Z,953.11
2019-03-12T18:03:24.128Z,953.19
2019-03-12T18:05:50.435Z,953.13
2019-03-12T18:08:16.754Z,953.26
2019-03-12T18:10:43.059Z,953.25
2019-03-12T18:13:09.483Z,953.23
2019-03-12T18:15:35.748Z,953.24
2019-03-12T18:18:02.053Z,953.31
2019-03-12T18:20:30.302Z,953.35
2019-03-12T18:22:54.934Z,953.37
2019-03-12T18:25:21.243Z,953.39
2019-03-12T18:27:47.679Z,953.41
2019-03-12T18:30:14.192Z,953.41
2019-03-12T18:32:40.490Z,953.51
2019-03-12T18:35:06.871Z,953.54
2019-03-12T18:37:33.223Z,953.54
2019-03-12T18:39:59.535Z,953.54
2019-03-12T18:42:25.924Z,953.54
2019-03-12T18:44:52.299Z,953.60
2019-03-12T18:47:19.380Z,953.67
2019-03-12T18:49:44.991Z,953.63
2019-03-12T18:52:11.288Z,953.66
2019-03-12T18:54:37.680Z,953.66
2019-03-12T18:57:04.004Z,953.69
2019-03-12T18:59:30.317Z,953.70
2019-03-12T19:01:56.719Z,953.82
2019-03-12T19:04:22.993Z,953.74
2019-03-12T19:06:49.330Z,953.79
2019-03-12T19:09:15.646Z,953.76
2019-03-12T19:11:41.948Z,953.79
2019-03-12T19:14:08.264Z,953.86
2019-03-12T19:16:34.571Z,953.90
2019-03-12T19:19:00.884Z,953.90
2019-03-12T19:21:27.199Z,954.01
2019-03-12T19:23:53.581Z,954.06
2019-03-12T19:26:19.951Z,954.02
2019-03-12T19:28:46.247Z,954.04
2019-03-12T19:31:12.558Z,954.04
2019-03-12T19:33:38.953Z,954.02
2019-03-12T19:36:05.320Z,954.11
2019-03-12T19:38:31.618Z,954.15
2019-03-12T19:40:58.025Z,954.18
2019-03-12T19:43:24.329Z,954.25
2019-03-12T19:45:50.642Z,954.22
2019-03-12T19:48:16.953Z,954.24
2019-03-12T19:50:43.272Z,954.27
2019-03-12T19:53:09.572Z,954.25
2019-03-12T19:55:35.887Z,954.26
2019-03-12T19:58:02.199Z,954.32
2019-03-12T20:00:28.556Z,954.29
2019-03-12T20:02:54.865Z,954.34
2019-03-12T20:05:21.179Z,954.40
2019-03-12T20:07:47.489Z,954.41
2019-03-12T20:10:13.799Z,954.37
2019-03-12T20:12:40.172Z,954.41
2019-03-12T20:15:06.479Z,954.44
2019-03-12T20:17:32.798Z,954.43
2019-03-12T20:19:59.303Z,954.43
2019-03-12T20:22:25.627Z,954.42
2019-03-12T20:24:51.933Z,954.36
2019-03-12T20:27:18.303Z,954.41
2019-03-12T20:29:46.430Z,954.42
2019-03-12T20:32:11.326Z,954.39
2019-03-12T20:34:37.634Z,954.45
2019-03-12T20:37:04.011Z,954.45
2019-03-12T20:39:30.393Z,954.41
2019-03-12T20:41:56.745Z,954.46
2019-03-12T20:44:23.151Z,954.44
2019-03-12T20:46:49.453Z,954.42
2019-03-12T20:49:15.891Z,954.52
2019-03-12T20:51:42.199Z,954.44
2019-03-12T20:54:08.546Z,954.49
2019-03-12T20:56:34.903Z,954.48
2019-03-12T20:59:01.247Z,954.55
2019-03-12T21:01:28.078Z,954.60
2019-03-12T21:03:53.949Z,954.54
2019-03-12T21:06:20.374Z,954.60
2019-03-12T21:08:46.775Z,954.57
2019-03-12T21:11:13.106Z,954.59
2019-03-12T21:13:39.410Z,954.54
2019-03-12T21:16:05.873Z,954.53
2019-03-12T21:18:32.247Z,954.41
2019-03-12T21:20:58.575Z,954.40
2019-03-12T21:23:24.880Z,954.45
2019-03-12T21:25:51.191Z,954.42
2019-03-12T21:28:17.532Z,954.44
2019-03-12T21:30:43.835Z,954.39
2019-03-12T21:33:15.165Z,954.41
2019-03-12T21:35:36.464Z,954.41
2019-03-12T21:38:02.772Z,954.37
2019-03-12T21:40:29.086Z,954.33
2019-03-12T21:42:55.389Z,954.19
2019-03-12T21:45:21.722Z,954.18
2019-03-12T21:47:48.066Z,954.26
2019-03-12T21:50:14.341Z,954.20
2019-03-12T21:52:40.657Z,954.21
2019-03-12T21:55:06.973Z,954.18
2019-03-12T21:57:33.289Z,954.16
2019-03-12T21:59:59.598Z,954.20
2019-03-12T22:02:25.909Z,954.15
2019-03-12T22:04:52.244Z,954.24
2019-03-12T22:07:18.562Z,954.24
2019-03-12T22:09:44.885Z,954.24
2019-03-12T22:12:11.192Z,954.20
2019-03-12T22:14:37.530Z,954.19
2019-03-12T22:17:03.811Z,954.15
2019-03-12T22:19:30.139Z,954.11
2019-03-12T22:21:56.443Z,954.08
2019-03-12T22:24:22.757Z,954.04
2019-03-12T22:26:49.063Z,954.09
2019-03-12T22:29:15.374Z,954.11
2019-03-12T22:31:41.689Z,954.14
2019-03-12T22:34:07.992Z,954.20
2019-03-12T22:36:34.325Z,954.12
2019-03-12T22:39:00.643Z,954.10
2019-03-12T22:41:26.947Z,954.12
2019-03-12T22:43:53.262Z,954.08
2019-03-12T22:46:19.572Z,954.14
2019-03-12T22:48:45.876Z,954.01
2019-03-12T22:51:12.186Z,954.02
2019-03-12T22:53:38.493Z,954.10
2019-03-12T22:56:04.797Z,953.95
2019-03-12T22:58:31.126Z,954.03
2019-03-12T23:00:57.427Z,954.04
2019-03-12T23:03:23.743Z,953.96
2019-03-12T23:05:50.056Z,954.01
2019-03-12T23:08:16.442Z,954.05
2019-03-12T23:10:42.679Z,954.06
2019-03-12T23:13:08.989Z,954.05
2019-03-12T23:15:35.324Z,954.00
2019-03-12T23:18:01.647Z,953.98
2019-03-12T23:20:27.954Z,953.92
2019-03-12T23:22:54.270Z,953.90
2019-03-12T23:25:20.580Z,953.97
2019-03-12T23:27:46.894Z,953.98
2019-03-12T23:30:13.216Z,953.95
2019-03-12T23:32:39.590Z,953.95
2019-03-12T23:35:05.911Z,953.91
2019-03-12T23:37:32.239Z,953.92
2019-03-12T23:39:58.553Z,953.84
2019-03-12T23:42:24.952Z,953.89
2019-03-12T23:44:51.252Z,953.94
2019-03-12T23:47:17.560Z,953.94
2019-03-12T23:49:43.875Z,953.86
2019-03-12T23:52:10.199Z,953.93
2019-03-12T23:54:36.535Z,953.88
2019-03-12T23:57:02.843Z,953.99
2019-03-12T23:59:29.154Z,953.96
